NFNL METAR and TAF | Updated Today

NFNL METAR

Labasa Airport

Observation time: 1:53 hr. ago

NFNL 291900Z 00000KT 9999 FEW028 19/18 Q1015

Need help? Read our tutorial on how to read METARs or read the parsed version below.

Labasa Airport (NFNL) METAR

  • Weather conditions on Thu, 29 Sep 2022 19:00:00 +0000 (1:53 hr. ago):
  • Present conditions: Dry
  • Clouds: A few at 853 meters
  • Visibility: Greater than 10 km
  • Wind: Calm
  • Temperature: 19 celsius
  • Dew point: 18 celsius
  • Pressure: 1015 millibars
  • Remarks: None


Useful to know...

NFNL TAF

Labasa Airport

TAF not found.

Airports near NFNL

No airports found within 100nm radius.